Time;durP1;ratioP1;P1;durP2;ratioP2;P2;SDS_P1;SDS_P2;PMS_P1;PMS_P2;Temp;Humidity;BMP_temperature;BMP_pressure;BME280_temperature;BME280_humidity;BME280_pressure;Samples;Min_cycle;Max_cycle;Signal;HPM_P1;HPM_P2
2022/03/14 00:01:04;;;;;;;26.20;12.97;;;6.60;71.90;;;;;;5032563;28;20589;-73
2022/03/14 00:03:42;;;;;;;19.90;11.63;;;6.60;72.20;;;;;;5032490;28;20545;-74
2022/03/14 00:06:12;;;;;;;21.53;11.93;;;6.50;72.30;;;;;;5024510;28;20603;-75
2022/03/14 00:08:40;;;;;;;19.30;11.13;;;6.50;72.60;;;;;;5030440;28;20225;-71
2022/03/14 00:11:06;;;;;;;28.73;13.03;;;6.50;72.60;;;;;;5032876;28;20218;-71
2022/03/14 00:13:32;;;;;;;20.10;12.00;;;6.40;72.70;;;;;;5032855;28;20708;-72
2022/03/14 00:15:59;;;;;;;21.63;12.07;;;6.40;72.90;;;;;;5025047;28;20429;-70
2022/03/14 00:18:26;;;;;;;25.23;12.43;;;6.50;75.20;;;;;;5011568;28;20196;-70
2022/03/14 00:20:51;;;;;;;23.67;12.50;;;6.60;74.80;;;;;;5024317;28;20221;-71
2022/03/14 00:23:18;;;;;;;21.83;12.67;;;6.70;74.80;;;;;;5032352;28;20211;-70
2022/03/14 00:25:44;;;;;;;21.77;12.47;;;6.70;73.70;;;;;;5022725;28;20213;-71
2022/03/14 00:28:11;;;;;;;23.40;12.27;;;6.60;72.80;;;;;;5025258;28;20207;-72
2022/03/14 00:30:36;;;;;;;23.37;12.80;;;6.50;73.00;;;;;;5023626;28;20722;-70
2022/03/14 00:33:02;;;;;;;24.27;12.17;;;6.30;73.30;;;;;;5025847;28;20187;-71
2022/03/14 00:35:28;;;;;;;22.97;12.60;;;6.30;73.60;;;;;;5026017;28;20245;-69
2022/03/14 00:37:53;;;;;;;29.63;12.30;;;6.20;73.80;;;;;;5027062;28;20291;-70
2022/03/14 00:40:19;;;;;;;21.57;12.13;;;6.20;74.00;;;;;;5032733;28;20245;-71
2022/03/14 00:42:45;;;;;;;24.40;11.90;;;6.10;74.10;;;;;;5036789;28;20214;-70
2022/03/14 00:45:10;;;;;;;23.50;12.90;;;6.10;74.20;;;;;;5035856;28;20195;-71
2022/03/14 00:47:36;;;;;;;20.67;12.33;;;6.10;74.30;;;;;;5034729;28;20260;-71
2022/03/14 00:50:02;;;;;;;21.20;12.80;;;6.10;74.40;;;;;;5031160;28;20226;-72
2022/03/14 00:52:27;;;;;;;23.23;13.43;;;6.00;74.50;;;;;;5030682;28;20207;-77
2022/03/14 00:54:53;;;;;;;24.17;12.60;;;6.00;74.70;;;;;;5027851;28;20224;-71
2022/03/14 00:57:19;;;;;;;23.87;12.83;;;6.00;74.80;;;;;;5013167;28;20295;-70
2022/03/14 00:59:44;;;;;;;24.23;13.17;;;6.00;75.00;;;;;;5012402;28;20213;-71
2022/03/14 01:02:10;;;;;;;26.43;13.03;;;5.90;75.00;;;;;;5011643;28;20207;-72
2022/03/14 01:04:36;;;;;;;23.23;12.07;;;5.90;75.10;;;;;;5012408;28;20775;-70
2022/03/14 01:07:02;;;;;;;25.47;12.63;;;5.80;75.20;;;;;;5013895;28;20678;-71
2022/03/14 01:09:32;;;;;;;23.37;12.83;;;5.80;75.40;;;;;;5019129;28;20188;-71
2022/03/14 01:11:58;;;;;;;25.40;13.43;;;5.80;75.50;;;;;;5011639;28;20660;-71
2022/03/14 01:14:25;;;;;;;23.80;12.63;;;5.80;75.60;;;;;;5011134;28;20209;-72
2022/03/14 01:16:51;;;;;;;24.03;12.63;;;5.70;75.80;;;;;;5012613;28;20211;-71
2022/03/14 01:19:17;;;;;;;26.80;13.07;;;5.70;76.00;;;;;;5011620;28;20690;-71
2022/03/14 01:21:43;;;;;;;23.33;12.33;;;5.70;76.00;;;;;;5011211;28;20227;-71
2022/03/14 01:24:08;;;;;;;24.57;12.73;;;5.70;76.20;;;;;;5012619;28;20187;-71
2022/03/14 01:26:34;;;;;;;22.57;13.00;;;5.60;76.20;;;;;;5012646;28;20204;-71
2022/03/14 01:29:03;;;;;;;27.53;14.00;;;5.60;76.40;;;;;;5010394;28;20210;-71
2022/03/14 01:31:29;;;;;;;26.07;13.90;;;5.60;76.30;;;;;;5012191;28;20214;-71
2022/03/14 01:33:55;;;;;;;25.10;12.90;;;5.60;76.30;;;;;;5012345;28;20569;-71
2022/03/14 01:36:20;;;;;;;25.60;13.50;;;5.50;76.50;;;;;;5010647;28;20200;-73
2022/03/14 01:38:46;;;;;;;24.70;13.07;;;5.60;76.60;;;;;;5018092;28;20203;-71
2022/03/14 01:41:16;;;;;;;24.60;12.50;;;5.50;76.60;;;;;;5010902;28;20218;-71
2022/03/14 01:43:42;;;;;;;23.33;12.70;;;5.50;76.70;;;;;;5010770;28;20694;-71
2022/03/14 01:46:07;;;;;;;22.27;12.17;;;5.40;76.80;;;;;;5011959;28;20211;-71
2022/03/14 01:48:33;;;;;;;26.67;13.50;;;5.50;76.80;;;;;;5011430;28;20205;-70
2022/03/14 01:50:58;;;;;;;24.47;11.93;;;5.40;76.90;;;;;;5012659;28;20178;-70
2022/03/14 01:53:25;;;;;;;25.33;13.00;;;5.30;77.10;;;;;;5011985;28;20593;-71
2022/03/14 01:55:51;;;;;;;25.20;12.33;;;5.30;77.30;;;;;;5011737;28;20217;-70
2022/03/14 01:58:17;;;;;;;24.37;13.33;;;5.30;77.40;;;;;;5010916;28;20252;-71
2022/03/14 02:00:46;;;;;;;22.00;11.90;;;5.30;77.60;;;;;;5010446;28;20205;-70
2022/03/14 02:03:11;;;;;;;27.07;13.20;;;5.20;77.60;;;;;;5012161;28;20187;-71
2022/03/14 02:05:37;;;;;;;27.30;13.37;;;5.20;77.80;;;;;;5010683;28;20581;-70
2022/03/14 02:08:07;;;;;;;28.97;13.27;;;5.30;77.80;;;;;;5016226;28;20583;-71
2022/03/14 02:10:38;;;;;;;25.93;12.33;;;5.20;77.80;;;;;;5013353;28;20210;-70
2022/03/14 02:13:06;;;;;;;30.20;13.97;;;5.20;77.80;;;;;;5010467;28;20216;-70
2022/03/14 02:15:33;;;;;;;24.87;13.63;;;5.20;78.00;;;;;;5010112;28;20233;-70
2022/03/14 02:17:59;;;;;;;25.77;12.93;;;5.20;78.10;;;;;;5010283;28;20228;-72
2022/03/14 02:20:25;;;;;;;23.13;13.47;;;5.10;78.20;;;;;;5011812;28;20229;-70
2022/03/14 02:22:50;;;;;;;30.47;14.30;;;5.10;78.40;;;;;;5011282;28;20775;-70
2022/03/14 02:25:15;;;;;;;27.60;12.97;;;5.10;78.40;;;;;;5010087;28;20255;-71
2022/03/14 02:27:41;;;;;;;22.50;12.83;;;5.10;78.40;;;;;;5011122;28;20227;-70
2022/03/14 02:30:07;;;;;;;27.10;13.40;;;5.10;78.40;;;;;;5011570;28;20596;-71
2022/03/14 02:32:33;;;;;;;26.07;13.03;;;5.10;78.70;;;;;;5011425;28;20217;-71
2022/03/14 02:34:58;;;;;;;26.40;13.30;;;5.10;78.70;;;;;;5011318;28;20221;-71
2022/03/14 02:37:24;;;;;;;22.83;12.80;;;5.10;78.70;;;;;;5011379;28;20284;-70
2022/03/14 02:39:50;;;;;;;23.90;13.10;;;5.10;78.70;;;;;;5029514;28;20224;-70
2022/03/14 02:42:15;;;;;;;27.53;13.23;;;5.00;78.90;;;;;;5031141;28;20695;-71
2022/03/14 02:44:43;;;;;;;28.17;13.33;;;5.00;78.90;;;;;;5031261;28;20200;-71
2022/03/14 02:47:09;;;;;;;29.77;13.43;;;5.00;79.00;;;;;;5031438;28;20313;-71
2022/03/14 02:49:34;;;;;;;24.87;12.47;;;5.00;79.00;;;;;;5030209;28;20727;-70
2022/03/14 02:52:00;;;;;;;24.40;12.53;;;5.00;78.90;;;;;;5029787;28;20209;-70
2022/03/14 02:54:26;;;;;;;24.63;13.03;;;5.00;78.90;;;;;;5030394;28;20745;-70
2022/03/14 02:56:52;;;;;;;23.90;12.70;;;5.00;79.00;;;;;;5030322;28;20229;-71
2022/03/14 02:59:19;;;;;;;24.27;13.03;;;5.00;79.10;;;;;;5030068;28;20255;-71
2022/03/14 03:01:44;;;;;;;24.27;12.47;;;4.90;79.30;;;;;;5029346;28;20266;-71
2022/03/14 03:04:10;;;;;;;22.87;12.53;;;5.00;79.40;;;;;;5030546;28;20239;-71
2022/03/14 03:06:35;;;;;;;24.87;13.40;;;4.90;79.50;;;;;;5029271;28;20285;-71
2022/03/14 03:09:05;;;;;;;25.23;12.93;;;4.90;79.70;;;;;;5023474;28;20227;-71
2022/03/14 03:11:32;;;;;;;26.40;13.70;;;4.90;79.80;;;;;;5011076;28;20389;-71
2022/03/14 03:13:59;;;;;;;27.20;14.63;;;4.80;79.90;;;;;;5011504;28;20211;-71
2022/03/14 03:16:24;;;;;;;24.47;13.20;;;4.80;80.80;;;;;;5011150;28;20220;-70
2022/03/14 03:18:50;;;;;;;27.73;13.07;;;4.80;80.10;;;;;;5010343;28;20279;-71
2022/03/14 03:21:18;;;;;;;31.47;13.03;;;4.80;80.20;;;;;;5011094;28;20189;-71
2022/03/14 03:23:44;;;;;;;23.43;13.07;;;4.80;80.40;;;;;;5010149;28;20568;-71
2022/03/14 03:26:10;;;;;;;24.27;12.97;;;4.70;80.50;;;;;;5011138;28;20212;-71
2022/03/14 03:28:36;;;;;;;27.17;13.63;;;4.80;80.60;;;;;;5020213;28;20211;-70
2022/03/14 03:31:06;;;;;;;25.00;12.80;;;4.70;80.80;;;;;;5030643;28;20226;-71
2022/03/14 03:33:32;;;;;;;24.23;12.43;;;4.80;80.60;;;;;;5030777;28;20685;-70
2022/03/14 03:35:58;;;;;;;25.87;13.27;;;4.80;80.70;;;;;;5034721;28;20748;-70
2022/03/14 03:38:24;;;;;;;23.73;12.87;;;4.80;80.50;;;;;;5032409;28;20231;-70
2022/03/14 03:40:49;;;;;;;25.77;13.53;;;4.70;80.80;;;;;;5023691;28;20686;-71
2022/03/14 03:43:15;;;;;;;28.57;14.43;;;4.70;81.00;;;;;;5022456;28;20209;-71
2022/03/14 03:45:41;;;;;;;24.97;12.43;;;4.70;81.10;;;;;;5033052;28;20287;-71
2022/03/14 03:48:06;;;;;;;29.83;13.83;;;4.60;81.30;;;;;;5033627;28;20656;-71
2022/03/14 03:50:32;;;;;;;22.33;12.13;;;4.60;81.50;;;;;;5033532;28;20214;-71
2022/03/14 03:52:57;;;;;;;23.97;13.90;;;4.60;81.40;;;;;;5033652;28;20685;-71
2022/03/14 03:55:24;;;;;;;27.53;13.90;;;4.60;81.60;;;;;;5033267;28;20224;-70
2022/03/14 03:57:49;;;;;;;27.50;13.57;;;4.60;81.60;;;;;;5033300;28;20212;-71
2022/03/14 04:00:15;;;;;;;23.13;13.07;;;4.60;81.60;;;;;;5033438;28;20211;-71
2022/03/14 04:02:42;;;;;;;26.27;12.93;;;4.60;81.60;;;;;;5032569;28;20315;-70
2022/03/14 04:05:09;;;;;;;26.53;12.97;;;4.60;81.70;;;;;;5033483;28;20242;-71
2022/03/14 04:07:35;;;;;;;27.37;13.63;;;4.60;81.80;;;;;;5031926;28;20697;-70
2022/03/14 04:10:01;;;;;;;27.90;14.10;;;4.50;81.70;;;;;;5032526;28;20219;-70
2022/03/14 04:12:27;;;;;;;25.57;13.10;;;4.60;81.70;;;;;;5033484;28;20593;-70
2022/03/14 04:14:54;;;;;;;22.60;12.50;;;4.60;81.60;;;;;;5033831;28;20200;-70
2022/03/14 04:17:19;;;;;;;27.23;13.53;;;4.60;81.90;;;;;;5032038;28;20219;-71
2022/03/14 04:19:45;;;;;;;21.97;11.90;;;4.60;82.00;;;;;;5032422;28;20289;-69
2022/03/14 04:22:14;;;;;;;26.57;12.63;;;4.60;81.90;;;;;;5033539;28;20246;-69
2022/03/14 04:24:39;;;;;;;22.97;12.20;;;4.60;81.70;;;;;;5031606;28;21486;-70
2022/03/14 04:27:05;;;;;;;25.00;13.03;;;4.60;81.70;;;;;;5033816;28;20206;-70
2022/03/14 04:29:30;;;;;;;24.47;11.80;;;4.60;81.60;;;;;;5031217;28;20209;-70
2022/03/14 04:31:56;;;;;;;22.53;13.10;;;4.60;81.60;;;;;;5032218;28;20216;-70
2022/03/14 04:34:22;;;;;;;22.57;12.43;;;4.60;81.80;;;;;;5033593;28;20242;-69
2022/03/14 04:36:50;;;;;;;24.47;13.17;;;4.60;81.90;;;;;;5035094;28;20296;-70
2022/03/14 04:39:16;;;;;;;24.03;13.90;;;4.60;82.00;;;;;;5025063;28;20235;-69
2022/03/14 04:41:42;;;;;;;24.13;13.33;;;4.50;82.20;;;;;;5032501;28;20556;-69
2022/03/14 04:44:08;;;;;;;23.40;12.97;;;4.50;82.20;;;;;;5040653;28;20215;-70
2022/03/14 04:46:35;;;;;;;22.47;12.13;;;4.50;82.60;;;;;;5036874;28;20342;-69
2022/03/14 04:49:01;;;;;;;28.20;13.43;;;4.50;82.40;;;;;;5033261;28;20277;-69
2022/03/14 04:51:27;;;;;;;27.13;13.60;;;4.50;82.40;;;;;;5033584;28;20184;-69
2022/03/14 04:53:53;;;;;;;27.80;13.47;;;4.50;82.30;;;;;;5033839;28;20590;-69
2022/03/14 04:56:18;;;;;;;24.33;12.33;;;4.40;82.50;;;;;;5032515;28;20235;-69
2022/03/14 04:58:44;;;;;;;24.67;13.10;;;4.50;82.70;;;;;;5031595;28;20214;-73
2022/03/14 05:01:09;;;;;;;27.07;12.77;;;4.50;82.90;;;;;;5031546;28;20217;-69
2022/03/14 05:03:35;;;;;;;22.30;12.83;;;4.40;83.00;;;;;;5031012;28;20212;-70
2022/03/14 05:06:01;;;;;;;27.63;13.70;;;4.40;83.10;;;;;;5032830;28;20267;-70
2022/03/14 05:08:26;;;;;;;29.40;13.10;;;4.40;82.90;;;;;;5031636;28;20235;-70
2022/03/14 05:10:52;;;;;;;27.87;13.00;;;4.40;83.30;;;;;;5030962;28;20219;-69
2022/03/14 05:13:17;;;;;;;23.03;13.27;;;4.40;83.20;;;;;;5032292;28;20597;-70
2022/03/14 05:15:43;;;;;;;29.37;13.50;;;4.40;83.30;;;;;;5032010;28;20235;-70
2022/03/14 05:18:09;;;;;;;27.63;14.13;;;4.40;83.10;;;;;;5030011;28;20188;-70
2022/03/14 05:20:36;;;;;;;21.03;12.17;;;4.50;82.50;;;;;;5032413;28;20258;-70
2022/03/14 05:23:03;;;;;;;26.63;13.23;;;4.50;82.40;;;;;;5031755;28;20688;-70
2022/03/14 05:25:30;;;;;;;22.60;12.97;;;4.50;82.70;;;;;;5030245;28;20222;-70
2022/03/14 05:27:56;;;;;;;26.47;13.23;;;4.50;82.90;;;;;;5031746;28;20214;-69
2022/03/14 05:30:22;;;;;;;24.80;12.67;;;4.50;83.10;;;;;;5031442;28;20567;-70
2022/03/14 05:32:48;;;;;;;27.37;13.80;;;4.40;83.30;;;;;;5032309;28;20188;-69
2022/03/14 05:35:15;;;;;;;27.07;13.80;;;4.40;83.20;;;;;;5031798;28;20223;-69
2022/03/14 05:37:44;;;;;;;28.43;12.70;;;4.40;83.60;;;;;;5031252;28;20257;-69
2022/03/14 05:40:12;;;;;;;24.03;13.90;;;4.40;83.80;;;;;;5027216;28;20226;-69
2022/03/14 05:42:37;;;;;;;25.70;13.57;;;4.40;84.00;;;;;;5021096;28;20239;-69
2022/03/14 05:45:04;;;;;;;26.20;13.13;;;4.30;84.10;;;;;;5024711;28;20231;-70
2022/03/14 05:47:30;;;;;;;27.27;13.50;;;4.30;84.40;;;;;;5031168;28;20215;-70
2022/03/14 05:49:56;;;;;;;26.37;13.57;;;4.30;84.50;;;;;;5030534;28;20222;-69
2022/03/14 05:52:21;;;;;;;24.90;13.70;;;4.30;84.60;;;;;;5031389;28;20207;-69
2022/03/14 05:54:48;;;;;;;28.57;13.60;;;4.30;84.50;;;;;;5031398;28;20210;-70
2022/03/14 05:57:14;;;;;;;29.43;13.47;;;4.30;84.60;;;;;;5030674;28;20258;-69
2022/03/14 05:59:39;;;;;;;26.67;14.03;;;4.30;84.50;;;;;;5018726;28;20200;-69
2022/03/14 06:02:05;;;;;;;27.30;13.80;;;4.40;84.50;;;;;;5010532;28;20239;-71
2022/03/14 06:04:31;;;;;;;26.47;14.50;;;4.40;84.60;;;;;;5010094;28;20201;-70
2022/03/14 06:06:57;;;;;;;24.27;12.77;;;4.50;84.60;;;;;;5010586;28;20227;-70
2022/03/14 06:09:25;;;;;;;29.40;13.10;;;4.50;84.40;;;;;;5009619;28;20195;-70
2022/03/14 06:11:51;;;;;;;31.03;13.97;;;4.50;84.00;;;;;;5012327;28;20266;-69
2022/03/14 06:14:17;;;;;;;27.60;13.07;;;4.50;83.90;;;;;;5011756;28;20227;-71
2022/03/14 06:16:43;;;;;;;23.60;12.73;;;5.10;83.70;;;;;;5010407;28;20213;-70
2022/03/14 06:19:08;;;;;;;25.50;13.43;;;7.60;79.90;;;;;;5010872;28;20231;-70
2022/03/14 06:21:34;;;;;;;30.00;14.33;;;8.60;76.10;;;;;;5011463;28;20272;-71
2022/03/14 06:24:00;;;;;;;24.27;13.37;;;9.50;72.70;;;;;;5012094;28;20267;-72
2022/03/14 06:26:26;;;;;;;31.17;14.43;;;9.70;70.90;;;;;;5011280;28;20220;-71
2022/03/14 06:28:52;;;;;;;29.57;14.03;;;10.50;70.30;;;;;;5013966;28;20213;-71
2022/03/14 06:31:17;;;;;;;26.17;13.57;;;9.90;70.10;;;;;;5011362;28;20243;-71
2022/03/14 06:33:43;;;;;;;24.87;13.37;;;10.50;70.20;;;;;;5011414;28;20215;-71
2022/03/14 06:36:09;;;;;;;27.27;14.63;;;11.60;67.60;;;;;;5010270;28;20205;-73
2022/03/14 06:38:36;;;;;;;30.00;14.90;;;11.80;67.70;;;;;;5013182;28;20196;-71
2022/03/14 06:41:02;;;;;;;28.47;13.87;;;12.70;65.30;;;;;;5029966;28;20575;-72
2022/03/14 06:43:29;;;;;;;27.53;14.87;;;12.80;64.90;;;;;;5030968;28;20816;-71
2022/03/14 06:45:55;;;;;;;25.33;15.00;;;13.00;63.70;;;;;;5031279;28;20338;-72
2022/03/14 06:48:21;;;;;;;28.70;15.27;;;13.50;63.10;;;;;;5030819;28;20267;-71
2022/03/14 06:50:46;;;;;;;26.27;14.40;;;13.70;62.30;;;;;;5012195;28;20177;-71
2022/03/14 06:53:12;;;;;;;27.77;14.57;;;13.90;62.40;;;;;;5011333;28;20201;-71
2022/03/14 06:55:37;;;;;;;26.60;14.17;;;13.50;62.60;;;;;;5010907;28;20565;-71
2022/03/14 06:58:03;;;;;;;30.37;14.90;;;13.90;62.10;;;;;;5012792;28;20319;-69
2022/03/14 07:00:28;;;;;;;24.07;13.17;;;14.30;60.50;;;;;;5013545;28;20235;-70
2022/03/14 07:02:54;;;;;;;26.97;13.20;;;12.90;60.20;;;;;;5024341;28;20661;-70
2022/03/14 07:05:23;;;;;;;27.40;14.23;;;12.60;61.80;;;;;;5029500;28;20204;-71
2022/03/14 07:07:50;;;;;;;26.37;14.00;;;12.40;61.40;;;;;;5011178;28;20217;-70
2022/03/14 07:10:16;;;;;;;24.17;13.03;;;11.90;63.10;;;;;;5014417;28;20309;-70
2022/03/14 07:12:46;;;;;;;21.10;13.67;;;12.50;61.80;;;;;;5013177;28;20279;-70
2022/03/14 07:15:13;;;;;;;23.97;14.60;;;12.80;61.30;;;;;;5014819;28;20189;-71
2022/03/14 07:17:39;;;;;;;21.43;13.37;;;12.70;61.80;;;;;;5014841;28;20721;-69
2022/03/14 07:20:05;;;;;;;24.10;13.77;;;12.90;60.80;;;;;;5014262;28;20213;-70
2022/03/14 07:22:35;;;;;;;23.30;14.20;;;13.10;59.30;;;;;;5014284;28;20288;-70
2022/03/14 07:25:01;;;;;;;20.57;12.97;;;12.80;60.50;;;;;;5014567;28;20217;-70
2022/03/14 07:27:27;;;;;;;26.67;14.17;;;13.20;60.10;;;;;;5013144;28;20728;-70
2022/03/14 07:29:52;;;;;;;28.17;14.40;;;12.90;59.80;;;;;;5017533;28;20189;-70
2022/03/14 07:32:18;;;;;;;23.20;14.13;;;12.90;60.10;;;;;;5023913;28;20229;-69
2022/03/14 07:34:43;;;;;;;21.83;12.63;;;13.10;60.00;;;;;;5017589;28;20593;-69
2022/03/14 07:37:09;;;;;;;20.13;13.20;;;13.00;59.90;;;;;;5019156;28;20209;-70
2022/03/14 07:39:34;;;;;;;23.93;14.43;;;12.90;61.20;;;;;;5023114;28;20228;-70
2022/03/14 07:42:00;;;;;;;24.53;13.77;;;13.40;59.60;;;;;;5013188;28;20177;-69
2022/03/14 07:44:25;;;;;;;23.47;13.83;;;13.90;59.60;;;;;;5033342;28;20223;-69
2022/03/14 07:46:51;;;;;;;24.30;13.77;;;13.80;58.80;;;;;;5031628;28;20869;-69
2022/03/14 07:49:16;;;;;;;22.23;13.87;;;14.20;59.00;;;;;;5017622;28;20209;-70
2022/03/14 07:51:42;;;;;;;23.67;14.07;;;15.40;57.80;;;;;;5023553;28;20260;-69
2022/03/14 07:54:07;;;;;;;20.30;12.75;;;15.60;56.80;;;;;;5015043;28;20173;-70
2022/03/14 07:56:33;;;;;;;23.73;13.47;;;14.90;56.90;;;;;;5021698;28;20229;-69
2022/03/14 07:58:58;;;;;;;21.80;13.77;;;13.80;58.80;;;;;;5016949;28;20277;-70
2022/03/14 08:01:24;;;;;;;35.33;18.73;;;14.70;59.80;;;;;;5013389;28;20208;-70
2022/03/14 08:03:49;;;;;;;31.77;18.47;;;14.90;57.90;;;;;;5020409;28;20228;-69
2022/03/14 08:06:22;;;;;;;22.27;13.07;;;14.50;59.10;;;;;;5013222;28;20678;-69
2022/03/14 08:08:49;;;;;;;23.23;12.57;;;14.20;58.50;;;;;;5016707;28;20660;-70
2022/03/14 08:11:15;;;;;;;22.17;11.83;;;14.10;58.50;;;;;;5032873;28;20212;-71
2022/03/14 08:13:41;;;;;;;24.27;12.63;;;13.50;59.40;;;;;;5026224;28;20311;-69
2022/03/14 08:16:06;;;;;;;23.00;13.07;;;13.40;59.40;;;;;;5023327;28;20763;-70
2022/03/14 08:18:32;;;;;;;20.00;12.70;;;13.70;59.20;;;;;;5024796;28;20232;-70
2022/03/14 08:20:57;;;;;;;20.63;11.30;;;14.10;58.70;;;;;;5024081;28;20723;-71
2022/03/14 08:23:24;;;;;;;23.03;12.03;;;14.40;58.00;;;;;;5025234;28;20200;-70
2022/03/14 08:25:49;;;;;;;20.40;11.83;;;14.50;58.10;;;;;;5025730;28;20307;-69
2022/03/14 08:28:15;;;;;;;20.97;11.80;;;14.00;58.50;;;;;;5026556;28;20295;-69
2022/03/14 08:30:41;;;;;;;21.30;11.43;;;14.00;58.30;;;;;;5024041;28;20221;-69
2022/03/14 08:33:07;;;;;;;17.90;11.13;;;14.30;58.40;;;;;;5022244;28;20176;-70
2022/03/14 08:35:34;;;;;;;16.80;11.13;;;14.10;58.40;;;;;;5025126;28;20227;-70
2022/03/14 08:38:00;;;;;;;18.53;11.10;;;13.60;58.70;;;;;;5022693;28;20220;-71
2022/03/14 08:40:26;;;;;;;20.40;10.73;;;13.80;58.50;;;;;;5023134;28;20208;-70
2022/03/14 08:42:54;;;;;;;19.33;10.87;;;13.20;58.80;;;;;;5023439;28;20214;-70
2022/03/14 08:45:20;;;;;;;18.83;10.60;;;13.70;59.40;;;;;;5028423;28;20615;-71
2022/03/14 08:47:45;;;;;;;22.03;10.97;;;13.50;58.80;;;;;;5026715;28;20208;-70
2022/03/14 08:50:12;;;;;;;16.93;10.50;;;13.20;58.70;;;;;;5023260;28;20204;-70
2022/03/14 08:52:38;;;;;;;17.77;10.03;;;13.60;59.50;;;;;;5025438;28;20227;-72
2022/03/14 08:55:05;;;;;;;16.60;10.67;;;13.40;58.50;;;;;;5023659;28;20760;-71
2022/03/14 08:57:31;;;;;;;18.40;10.17;;;14.00;58.60;;;;;;5025919;28;20235;-71
2022/03/14 08:59:57;;;;;;;18.97;11.20;;;13.70;58.40;;;;;;5030015;28;20682;-69
2022/03/14 09:02:23;;;;;;;18.63;10.90;;;14.20;58.50;;;;;;5028286;28;20205;-71
2022/03/14 09:04:48;;;;;;;18.13;9.87;;;14.00;57.90;;;;;;5023435;28;20629;-70
2022/03/14 09:07:43;;;;;;;19.20;10.77;;;13.90;58.00;;;;;;5031863;28;20215;-71
2022/03/14 09:10:14;;;;;;;14.73;9.97;;;13.80;58.10;;;;;;5002796;28;20205;-71
2022/03/14 09:12:42;;;;;;;19.40;10.90;;;13.90;58.40;;;;;;5012216;28;20213;-71
2022/03/14 09:15:09;;;;;;;19.73;10.87;;;14.00;58.10;;;;;;5012468;28;20674;-71
2022/03/14 09:17:44;;;;;;;17.67;10.77;;;13.60;58.50;;;;;;5016847;28;20211;-71
2022/03/14 09:20:10;;;;;;;15.20;10.27;;;13.10;59.00;;;;;;5021269;28;20223;-70
2022/03/14 09:22:36;;;;;;;20.90;10.63;;;12.80;59.40;;;;;;5024660;28;20207;-70
2022/03/14 09:25:02;;;;;;;17.40;11.10;;;12.60;60.00;;;;;;5019691;28;20541;-70
2022/03/14 09:27:27;;;;;;;19.03;10.73;;;12.70;60.40;;;;;;5016812;28;20185;-71
2022/03/14 09:29:53;;;;;;;19.77;10.40;;;12.80;60.20;;;;;;5023124;28;20184;-71
2022/03/14 09:32:19;;;;;;;14.20;8.90;;;12.40;60.30;;;;;;5023803;28;20235;-71
2022/03/14 09:34:44;;;;;;;17.77;9.37;;;12.90;60.80;;;;;;5022199;28;20220;-71
2022/03/14 09:37:10;;;;;;;15.60;9.90;;;12.60;59.80;;;;;;5023741;28;20582;-72
2022/03/14 09:39:36;;;;;;;13.50;10.00;;;12.40;60.50;;;;;;5017564;28;20275;-72
2022/03/14 09:42:02;;;;;;;15.23;9.07;;;12.80;60.50;;;;;;5028053;28;20176;-72
2022/03/14 09:44:30;;;;;;;15.03;9.40;;;12.80;60.40;;;;;;5030193;28;20212;-72
2022/03/14 09:47:00;;;;;;;17.23;10.10;;;12.80;60.30;;;;;;5012585;28;20303;-73
2022/03/14 09:49:28;;;;;;;16.60;10.67;;;12.70;60.50;;;;;;5010107;28;20292;-74
2022/03/14 09:51:54;;;;;;;16.87;9.23;;;12.90;60.60;;;;;;5012579;28;20209;-74
2022/03/14 09:54:23;;;;;;;17.53;9.53;;;13.10;60.10;;;;;;5024614;28;20195;-73
2022/03/14 09:56:49;;;;;;;14.10;8.97;;;13.40;59.50;;;;;;5032348;28;20660;-72
2022/03/14 09:59:14;;;;;;;13.80;9.20;;;12.70;59.40;;;;;;5030582;28;20216;-73
2022/03/14 10:01:41;;;;;;;15.97;9.43;;;12.90;60.30;;;;;;5031860;28;20721;-73
2022/03/14 10:04:08;;;;;;;14.73;9.43;;;12.90;59.50;;;;;;5030587;28;20218;-72
2022/03/14 10:06:35;;;;;;;14.93;9.57;;;12.90;59.80;;;;;;5030372;28;20621;-72
2022/03/14 10:09:01;;;;;;;14.10;9.50;;;12.90;59.80;;;;;;5030401;28;20186;-73
2022/03/14 10:11:27;;;;;;;13.97;8.97;;;13.00;59.90;;;;;;5017474;28;20708;-72
2022/03/14 10:13:53;;;;;;;13.60;8.17;;;12.90;59.70;;;;;;5012021;28;20641;-73
2022/03/14 10:16:18;;;;;;;16.17;9.53;;;12.70;59.70;;;;;;5012114;28;20220;-73
2022/03/14 10:19:01;;;;;;;15.57;9.00;;;12.60;60.00;;;;;;5009811;28;20225;-73
2022/03/14 10:21:32;;;;;;;14.87;9.10;;;12.80;60.30;;;;;;5011060;28;20238;-73
2022/03/14 10:24:09;;;;;;;14.00;9.53;;;13.10;60.10;;;;;;5012783;28;20188;-73
2022/03/14 10:26:37;;;;;;;18.47;9.73;;;13.10;60.30;;;;;;5012224;28;20274;-72
2022/03/14 10:29:07;;;;;;;15.57;9.00;;;13.20;59.90;;;;;;5015676;28;20221;-73
2022/03/14 10:31:37;;;;;;;17.33;9.13;;;13.10;60.00;;;;;;5012073;28;20216;-74
2022/03/14 10:34:10;;;;;;;14.40;9.40;;;12.70;60.10;;;;;;5017190;28;20322;-73
2022/03/14 10:36:45;;;;;;;13.63;8.80;;;12.60;61.20;;;;;;5030205;28;20220;-72
2022/03/14 10:39:17;;;;;;;16.90;10.07;;;12.80;62.30;;;;;;5028219;28;20610;-73
2022/03/14 10:42:01;;;;;;;16.20;9.40;;;13.00;61.30;;;;;;5026853;28;20176;-72
2022/03/14 10:44:27;;;;;;;14.57;9.00;;;13.10;61.40;;;;;;5024497;28;20255;-73
2022/03/14 10:46:52;;;;;;;14.40;9.27;;;13.20;61.40;;;;;;5028842;28;20240;-72
2022/03/14 10:49:18;;;;;;;13.63;8.83;;;13.10;61.60;;;;;;5015434;28;20637;-73
2022/03/14 10:51:52;;;;;;;14.63;9.17;;;13.00;61.90;;;;;;5026236;28;20215;-73
2022/03/14 10:54:18;;;;;;;16.37;9.10;;;13.20;61.60;;;;;;5035998;28;20172;-72
2022/03/14 10:57:12;;;;;;;13.13;9.03;;;12.90;62.00;;;;;;5034779;28;20715;-73
2022/03/14 10:59:43;;;;;;;13.30;9.20;;;13.40;62.30;;;;;;5027546;28;20753;-72
2022/03/14 11:02:19;;;;;;;20.03;9.73;;;13.10;62.60;;;;;;5015473;28;20360;-72
2022/03/14 11:04:50;;;;;;;17.10;9.10;;;13.30;63.00;;;;;;5023111;28;20358;-74
2022/03/14 11:07:26;;;;;;;17.33;10.53;;;13.50;64.10;;;;;;5034050;28;20219;-73
2022/03/14 11:09:53;;;;;;;12.43;7.67;;;13.70;64.40;;;;;;5018981;28;20303;-77
2022/03/14 11:12:21;;;;;;;15.30;9.00;;;13.60;62.60;;;;;;5013796;28;20271;-75
2022/03/14 11:15:09;;;;;;;11.77;8.20;;;13.40;65.90;;;;;;5015860;28;20201;-72
2022/03/14 11:17:36;;;;;;;13.60;8.37;;;13.30;64.90;;;;;;5027946;28;20208;-72
2022/03/14 11:20:02;;;;;;;14.83;8.77;;;13.20;62.50;;;;;;5017665;28;20352;-72
2022/03/14 11:22:30;;;;;;;11.60;8.37;;;13.40;63.10;;;;;;5014710;28;20685;-74
2022/03/14 11:24:58;;;;;;;13.03;8.57;;;13.90;66.10;;;;;;5012492;28;20267;-76
2022/03/14 11:27:32;;;;;;;13.77;8.77;;;13.90;63.50;;;;;;5015090;28;20279;-73
2022/03/14 11:30:07;;;;;;;17.53;8.57;;;14.00;64.40;;;;;;5019311;28;20188;-73
2022/03/14 11:32:34;;;;;;;14.23;7.97;;;13.60;64.40;;;;;;5014630;28;20212;-75
2022/03/14 11:35:01;;;;;;;14.73;8.03;;;14.00;68.60;;;;;;5014914;28;20212;-74
2022/03/14 11:37:29;;;;;;;11.93;9.00;;;13.60;65.20;;;;;;5014848;28;20648;-73
2022/03/14 11:39:56;;;;;;;13.03;8.73;;;13.20;64.70;;;;;;5014057;28;20706;-73
2022/03/14 11:42:22;;;;;;;14.73;9.30;;;13.60;64.70;;;;;;5019698;28;20173;-72
2022/03/14 11:44:49;;;;;;;14.23;8.53;;;13.70;65.40;;;;;;5033508;28;20254;-73
2022/03/14 11:47:17;;;;;;;16.40;8.77;;;14.30;65.30;;;;;;5026452;28;20299;-72
2022/03/14 11:49:43;;;;;;;13.17;8.07;;;14.60;61.60;;;;;;5021312;28;20271;-71
2022/03/14 11:52:20;;;;;;;12.07;8.77;;;14.40;61.50;;;;;;5022816;28;20200;-71
2022/03/14 11:54:48;;;;;;;13.20;8.87;;;14.70;60.50;;;;;;5031023;28;20277;-70
2022/03/14 11:57:36;;;;;;;14.23;9.17;;;14.90;60.40;;;;;;5023914;28;20240;-70
2022/03/14 12:00:20;;;;;;;11.70;8.37;;;14.90;60.20;;;;;;5018591;28;20217;-70
2022/03/14 12:02:47;;;;;;;18.60;9.40;;;15.10;59.80;;;;;;5014596;28;20224;-70
2022/03/14 12:05:13;;;;;;;11.50;8.40;;;14.60;61.00;;;;;;5019889;28;20696;-70
2022/03/14 12:07:38;;;;;;;13.83;8.57;;;14.40;60.70;;;;;;5032225;28;20572;-72
2022/03/14 12:10:30;;;;;;;15.70;9.53;;;14.40;61.50;;;;;;5033282;28;20204;-71
2022/03/14 12:12:58;;;;;;;13.03;8.70;;;14.30;61.80;;;;;;5025638;28;20208;-72
2022/03/14 12:15:39;;;;;;;14.13;8.73;;;14.50;61.80;;;;;;5032550;28;20228;-73
2022/03/14 12:18:28;;;;;;;16.37;11.83;;;14.80;61.70;;;;;;5023868;28;20161;-77
2022/03/14 12:21:03;;;;;;;16.10;11.83;;;15.00;61.80;;;;;;5025511;28;20215;-72
2022/03/14 12:23:31;;;;;;;65.03;37.10;;;15.00;61.80;;;;;;5020617;28;20213;-73
2022/03/14 12:25:59;;;;;;;25.53;16.60;;;15.20;62.50;;;;;;5014524;28;20271;-75
2022/03/14 12:28:37;;;;;;;17.30;11.90;;;15.20;62.40;;;;;;5018014;28;20231;-73
2022/03/14 12:31:13;;;;;;;21.73;13.03;;;14.90;62.60;;;;;;5013938;28;20281;-73
2022/03/14 12:33:44;;;;;;;19.23;12.80;;;15.00;63.20;;;;;;5013927;28;20254;-72